createdAt,value
2018-11-22T00:00:56.754Z,7.27
2018-11-22T00:02:07.369Z,7.22
2018-11-22T00:03:16.901Z,7.29
2018-11-22T00:04:26.453Z,7.33
2018-11-22T00:05:36.258Z,7.22
2018-11-22T00:06:45.872Z,7.21
2018-11-22T00:07:55.933Z,7.22
2018-11-22T00:09:07.995Z,7.31
2018-11-22T00:10:18.062Z,7.26
2018-11-22T00:11:27.611Z,7.36
2018-11-22T00:12:37.479Z,7.36
2018-11-22T00:13:47.536Z,7.23
2018-11-22T00:14:57.072Z,7.34
2018-11-22T00:16:07.151Z,7.3
2018-11-22T00:17:17.231Z,7.37
2018-11-22T00:18:27.303Z,7.37
2018-11-22T00:19:37.110Z,7.41
2018-11-22T00:20:47.165Z,7.4
2018-11-22T00:21:57.228Z,7.36
2018-11-22T00:23:07.286Z,7.34
2018-11-22T00:24:17.137Z,7.34
2018-11-22T00:25:26.943Z,7.34
2018-11-22T00:26:36.293Z,7.39
2018-11-22T00:27:46.363Z,7.31
2018-11-22T00:28:56.174Z,7.4
2018-11-22T00:30:06.629Z,7.48
2018-11-22T00:31:16.694Z,7.41
2018-11-22T00:32:26.767Z,7.45
2018-11-22T00:33:36.599Z,7.49
2018-11-22T00:34:46.688Z,7.52
2018-11-22T00:35:56.285Z,7.41
2018-11-22T00:37:06.100Z,7.52
2018-11-22T00:38:15.886Z,7.45
2018-11-22T00:39:25.699Z,7.41
2018-11-22T00:40:35.532Z,7.44
2018-11-22T00:41:45.370Z,7.39
2018-11-22T00:42:54.903Z,7.49
2018-11-22T00:44:06.073Z,7.44
2018-11-22T00:45:15.877Z,7.47
2018-11-22T00:46:25.927Z,7.49
2018-11-22T00:47:35.453Z,7.45
2018-11-22T00:48:45.029Z,7.45
2018-11-22T00:49:54.831Z,7.41
2018-11-22T00:51:04.885Z,7.51
2018-11-22T00:52:14.964Z,7.51
2018-11-22T00:53:24.822Z,7.52
2018-11-22T00:54:34.361Z,7.51
2018-11-22T00:55:43.898Z,7.44
2018-11-22T00:56:53.699Z,7.47
2018-11-22T00:58:03.789Z,7.45
2018-11-22T00:59:13.650Z,7.47
2018-11-22T01:00:23.465Z,7.51
2018-11-22T01:01:33.258Z,7.51
2018-11-22T01:02:43.083Z,7.45
2018-11-22T01:03:52.889Z,7.47
2018-11-22T01:05:02.213Z,7.51
2018-11-22T01:06:12.292Z,7.54
2018-11-22T01:07:22.084Z,7.52
2018-11-22T01:08:32.150Z,7.51
2018-11-22T01:09:42.208Z,7.49
2018-11-22T01:10:52.060Z,7.48
2018-11-22T01:12:01.868Z,7.48
2018-11-22T01:13:11.654Z,7.54
2018-11-22T01:14:21.464Z,7.52
2018-11-22T01:15:31.287Z,7.52
2018-11-22T01:16:41.373Z,7.44
2018-11-22T01:17:51.173Z,7.52
2018-11-22T01:19:01.279Z,7.48
2018-11-22T01:20:11.091Z,7.51
2018-11-22T01:21:21.151Z,7.52
2018-11-22T01:22:31.262Z,7.63
2018-11-22T01:23:41.079Z,7.59
2018-11-22T01:24:51.162Z,7.56
2018-11-22T01:26:01.232Z,7.59
2018-11-22T01:27:10.792Z,7.58
2018-11-22T01:28:20.912Z,7.58
2018-11-22T01:29:30.717Z,7.59
2018-11-22T01:30:40.256Z,7.7
2018-11-22T01:31:50.061Z,7.67
2018-11-22T01:32:59.862Z,7.64
2018-11-22T01:34:09.981Z,7.61
2018-11-22T01:35:20.262Z,7.54
2018-11-22T01:36:30.067Z,7.7
2018-11-22T01:37:39.865Z,7.54
2018-11-22T01:38:49.686Z,7.59
2018-11-22T01:39:59.802Z,7.64
2018-11-22T01:41:10.006Z,7.59
2018-11-22T01:42:20.062Z,7.68
2018-11-22T01:43:30.139Z,7.68
2018-11-22T01:44:39.438Z,7.67
2018-11-22T01:45:49.282Z,7.7
2018-11-22T01:46:59.360Z,7.75
2018-11-22T01:48:09.431Z,7.71
2018-11-22T01:49:19.228Z,7.82
2018-11-22T01:50:29.031Z,7.74
2018-11-22T01:51:39.146Z,7.71
2018-11-22T01:52:48.979Z,7.78
2018-11-22T01:53:58.523Z,7.77
2018-11-22T01:55:10.230Z,7.83
2018-11-22T01:56:20.301Z,7.75
2018-11-22T01:57:29.896Z,7.78
2018-11-22T01:58:39.693Z,7.77
2018-11-22T01:59:49.224Z,7.85
2018-11-22T02:00:58.764Z,7.78
2018-11-22T02:02:08.566Z,7.71
2018-11-22T02:03:18.669Z,7.78
2018-11-22T02:04:28.469Z,7.73
2018-11-22T02:05:38.262Z,7.78
2018-11-22T02:06:48.316Z,7.74
2018-11-22T02:07:58.120Z,7.75
2018-11-22T02:09:08.227Z,7.75
2018-11-22T02:10:18.291Z,7.77
2018-11-22T02:11:28.098Z,7.78
2018-11-22T02:12:38.163Z,7.86
2018-11-22T02:13:47.958Z,7.88
2018-11-22T02:14:58.070Z,7.8
2018-11-22T02:16:08.139Z,7.73
2018-11-22T02:17:18.330Z,7.68
2018-11-22T02:18:28.466Z,7.71
2018-11-22T02:19:38.517Z,7.64
2018-11-22T02:20:48.384Z,7.58
2018-11-22T02:21:58.462Z,7.68
2018-11-22T02:23:08.533Z,7.63
2018-11-22T02:24:18.329Z,7.63
2018-11-22T02:25:28.407Z,7.67
2018-11-22T02:26:38.518Z,7.63
2018-11-22T02:27:48.311Z,7.59
2018-11-22T02:28:58.365Z,7.54
2018-11-22T02:30:09.405Z,7.67
2018-11-22T02:31:19.195Z,7.73
2018-11-22T02:32:28.782Z,7.61
2018-11-22T02:33:38.840Z,7.56
2018-11-22T02:34:48.900Z,7.56
2018-11-22T02:35:58.705Z,7.63
2018-11-22T02:37:09.050Z,7.58
2018-11-22T02:38:19.178Z,7.56
2018-11-22T02:39:28.980Z,7.61
2018-11-22T02:40:38.784Z,7.52
2018-11-22T02:41:48.323Z,7.55
2018-11-22T02:42:58.139Z,7.56
2018-11-22T02:44:09.719Z,7.58
2018-11-22T02:45:19.528Z,7.59
2018-11-22T02:46:29.598Z,7.51
2018-11-22T02:47:39.131Z,7.54
2018-11-22T02:48:48.940Z,7.48
2018-11-22T02:49:59.115Z,7.55
2018-11-22T02:51:09.166Z,7.49
2018-11-22T02:52:18.711Z,7.52
2018-11-22T02:53:28.519Z,7.49
2018-11-22T02:54:38.578Z,7.51
2018-11-22T02:55:48.422Z,7.51
2018-11-22T02:56:58.215Z,7.39
2018-11-22T02:58:08.013Z,7.34
2018-11-22T02:59:18.105Z,7.33
2018-11-22T03:00:28.164Z,7.33
2018-11-22T03:01:37.754Z,7.36
2018-11-22T03:02:47.825Z,7.37
2018-11-22T03:35:17.476Z,5.37
2018-11-22T03:36:27.535Z,5.23
2018-11-22T03:37:37.595Z,5.24
2018-11-22T03:38:47.405Z,5.28
2018-11-22T03:39:57.480Z,5.3
2018-11-22T03:41:07.734Z,5.41
2018-11-22T03:42:17.531Z,5.41
2018-11-22T03:43:27.348Z,5.49
2018-11-22T03:44:37.416Z,5.6
2018-11-22T03:45:47.469Z,5.75
2018-11-22T03:46:58.601Z,5.78
2018-11-22T03:48:09.459Z,5.92
2018-11-22T03:49:19.527Z,6.05
2018-11-22T03:50:29.625Z,6.18
2018-11-22T03:51:39.401Z,6.26
2018-11-22T03:52:48.933Z,6.31
2018-11-22T03:53:58.481Z,6.51
2018-11-22T03:55:08.564Z,6.49
2018-11-22T03:56:18.611Z,6.62
2018-11-22T03:57:28.417Z,6.7
2018-11-22T03:58:38.525Z,6.8
2018-11-22T03:59:48.348Z,6.79
2018-11-22T04:00:58.396Z,6.85
2018-11-22T04:02:08.961Z,6.93
2018-11-22T04:03:18.765Z,7.01
2018-11-22T04:04:28.628Z,7.08
2018-11-22T04:05:37.909Z,6.98
2018-11-22T04:06:47.982Z,7.11
2018-11-22T04:07:58.032Z,7.09
2018-11-22T04:09:08.104Z,7.11
2018-11-22T04:10:17.760Z,7.16
2018-11-22T04:11:27.312Z,7.21
2018-11-22T04:12:37.369Z,7.29
2018-11-22T04:13:46.925Z,7.26
2018-11-22T04:14:56.738Z,7.34
2018-11-22T04:16:06.641Z,7.29
2018-11-22T04:17:16.711Z,7.26
2018-11-22T04:18:26.524Z,7.22
2018-11-22T04:19:36.599Z,7.27
2018-11-22T04:20:46.427Z,7.31
2018-11-22T04:21:56.020Z,7.39
2018-11-22T04:23:06.189Z,7.18
2018-11-22T04:24:16.236Z,7.3
2018-11-22T04:25:26.319Z,7.18
2018-11-22T04:26:36.116Z,7.23
2018-11-22T04:27:45.965Z,7.26
2018-11-22T04:28:55.780Z,7.23
2018-11-22T04:30:06.136Z,7.18
2018-11-22T04:31:15.424Z,7.26
2018-11-22T04:32:25.479Z,7.27
2018-11-22T04:33:35.346Z,7.21
2018-11-22T04:34:45.161Z,7.23
2018-11-22T04:35:55.233Z,7.21
2018-11-22T04:37:07.313Z,7.26
2018-11-22T04:38:17.376Z,7.22
2018-11-22T04:39:27.503Z,7.21
2018-11-22T04:40:37.310Z,7.22
2018-11-22T04:41:47.373Z,7.23
2018-11-22T04:42:56.385Z,7.18
2018-11-22T04:44:06.452Z,7.19
2018-11-22T04:45:16.577Z,7.19
2018-11-22T04:46:26.636Z,7.19
2018-11-22T04:47:36.438Z,7.21
2018-11-22T04:48:45.967Z,7.15
2018-11-22T04:49:56.036Z,7.19
2018-11-22T04:51:05.884Z,7.15
2018-11-22T04:52:15.967Z,7.18
2018-11-22T04:53:25.501Z,7.16
2018-11-22T04:54:35.291Z,7.23
2018-11-22T04:55:45.077Z,7.04
2018-11-22T04:56:55.194Z,7.18
2018-11-22T04:58:05.022Z,7.26
2018-11-22T04:59:14.560Z,7.23
2018-11-22T05:00:24.629Z,7.21
2018-11-22T05:01:34.421Z,7.22
2018-11-22T05:02:44.277Z,7.16
2018-11-22T05:03:54.345Z,7.05
2018-11-22T05:05:04.139Z,7.15
2018-11-22T05:06:13.414Z,7.11
2018-11-22T05:07:23.479Z,7.08
2018-11-22T05:08:33.336Z,7.08
2018-11-22T05:09:43.408Z,7
2018-11-22T05:10:53.480Z,7
2018-11-22T05:12:03.612Z,7
2018-11-22T05:13:12.883Z,6.98
2018-11-22T05:14:22.995Z,7.03
2018-11-22T05:15:33.064Z,7
2018-11-22T05:16:42.879Z,6.93
2018-11-22T05:17:52.690Z,6.94
2018-11-22T05:19:03.294Z,7.01
2018-11-22T05:20:12.833Z,6.98
2018-11-22T05:21:22.642Z,6.95
2018-11-22T05:22:32.182Z,7.09
2018-11-22T05:23:41.999Z,7.11
2018-11-22T05:24:52.083Z,7.11
2018-11-22T05:26:02.213Z,7.12
2018-11-22T05:27:12.284Z,7.08
2018-11-22T05:28:22.346Z,7.12
2018-11-22T05:29:32.148Z,7.16
2018-11-22T05:30:42.204Z,7.15
2018-11-22T05:31:52.075Z,7
2018-11-22T05:33:02.309Z,7.03
2018-11-22T05:34:12.394Z,7.03
2018-11-22T05:35:22.203Z,7.11
2018-11-22T05:36:31.469Z,6.97
2018-11-22T05:37:41.332Z,7.04
2018-11-22T05:38:51.391Z,6.94
2018-11-22T05:40:03.416Z,6.97
2018-11-22T05:41:13.212Z,6.95
2018-11-22T05:42:23.298Z,6.9
2018-11-22T05:43:33.139Z,6.88
2018-11-22T05:44:43.207Z,6.85
2018-11-22T05:45:53.032Z,6.8
2018-11-22T05:47:07.345Z,6.8
2018-11-22T05:48:17.159Z,6.72
2018-11-22T05:49:27.248Z,6.73
2018-11-22T05:50:37.338Z,6.73
2018-11-22T05:51:47.405Z,6.76
2018-11-22T05:52:56.948Z,6.73
2018-11-22T05:54:06.754Z,6.72
2018-11-22T05:55:16.599Z,6.82
2018-11-22T05:56:26.129Z,6.83
2018-11-22T05:57:36.187Z,6.86
2018-11-22T05:58:46.264Z,6.82
2018-11-22T05:59:56.345Z,6.86
2018-11-22T06:01:06.522Z,6.85
2018-11-22T06:02:21.516Z,6.82
2018-11-22T06:03:31.300Z,6.79
2018-11-22T06:04:41.385Z,6.85
2018-11-22T06:05:51.201Z,6.8
2018-11-22T06:07:01.344Z,6.86
2018-11-22T06:08:11.408Z,6.95
2018-11-22T06:09:20.866Z,7
2018-11-22T06:10:30.742Z,6.88
2018-11-22T06:11:40.809Z,6.98
2018-11-22T06:12:50.952Z,6.91
2018-11-22T06:14:01.037Z,7.03
2018-11-22T06:15:11.098Z,7.01
2018-11-22T06:16:21.182Z,6.97
2018-11-22T06:17:31.289Z,7
2018-11-22T06:18:41.142Z,7.05
2018-11-22T06:19:51.230Z,7
2018-11-22T06:21:01.320Z,6.95
2018-11-22T06:22:11.469Z,7
2018-11-22T06:23:21.535Z,6.95
2018-11-22T06:24:31.660Z,7
2018-11-22T06:25:41.732Z,6.94
2018-11-22T06:26:51.526Z,7.05
2018-11-22T06:28:01.601Z,7.15
2018-11-22T06:29:11.671Z,7.13
2018-11-22T06:30:21.844Z,7.16
2018-11-22T06:31:31.669Z,7.18
2018-11-22T06:32:41.478Z,7.15
2018-11-22T06:33:51.020Z,7.12
2018-11-22T06:35:01.094Z,7.15
2018-11-22T06:36:10.945Z,7.13
2018-11-22T06:37:21.013Z,7.13
2018-11-22T06:38:31.101Z,7.11
2018-11-22T06:39:41.172Z,7.11
2018-11-22T06:40:51.227Z,7.03
2018-11-22T06:42:01.344Z,7.04
2018-11-22T06:43:11.439Z,7.03
2018-11-22T06:44:21.494Z,7.12
2018-11-22T06:45:31.572Z,7.12
2018-11-22T06:46:41.651Z,7.03
2018-11-22T06:47:51.492Z,7.08
2018-11-22T06:49:01.549Z,7.18
2018-11-22T06:50:11.351Z,7.22
2018-11-22T06:51:21.423Z,7.13
2018-11-22T06:52:31.483Z,7.12
2018-11-22T06:53:41.348Z,7.11
2018-11-22T06:54:51.160Z,7.16
2018-11-22T06:56:01.240Z,7.13
2018-11-22T06:57:11.030Z,7.18
2018-11-22T06:58:20.820Z,7.18
2018-11-22T06:59:30.631Z,7.18
2018-11-22T07:00:40.697Z,7.13
2018-11-22T07:01:50.503Z,7.09
2018-11-22T07:03:00.562Z,7.18
2018-11-22T07:04:10.632Z,7.12
2018-11-22T07:05:20.698Z,7.22
2018-11-22T07:06:30.765Z,7.12
2018-11-22T07:07:40.887Z,7.08
2018-11-22T07:08:50.976Z,7.15
2018-11-22T07:10:03.675Z,7.09
2018-11-22T07:11:13.482Z,7.12
2018-11-22T07:12:23.020Z,7.13
2018-11-22T07:13:33.082Z,7.13
2018-11-22T07:14:43.161Z,7.08
2018-11-22T07:15:52.427Z,7.15
2018-11-22T07:17:02.506Z,7.11
2018-11-22T07:18:12.411Z,7.12
2018-11-22T07:19:22.274Z,7.16
2018-11-22T07:20:32.333Z,7.04
2018-11-22T07:21:42.417Z,7.18
2018-11-22T07:22:52.475Z,7.13
2018-11-22T07:24:02.565Z,7.11
2018-11-22T07:25:12.658Z,7.23
2018-11-22T07:26:22.722Z,7.19
2018-11-22T07:27:33.322Z,7.19
2018-11-22T07:28:48.205Z,7.23
2018-11-22T07:29:58.005Z,7.21
2018-11-22T07:31:07.857Z,7.21
2018-11-22T07:32:17.413Z,7.21
2018-11-22T07:33:27.227Z,7.27
2018-11-22T07:34:43.516Z,7.21
2018-11-22T07:35:53.355Z,7.26
2018-11-22T07:37:03.455Z,7.19
2018-11-22T07:38:13.286Z,7.29
2018-11-22T07:39:22.813Z,7.15
2018-11-22T07:40:32.895Z,7.23
2018-11-22T07:41:42.432Z,7.27
2018-11-22T07:42:53.135Z,7.22
2018-11-22T07:44:02.783Z,7.27
2018-11-22T07:45:12.318Z,7.21
2018-11-22T07:46:22.404Z,7.27
2018-11-22T07:47:32.208Z,7.23
2018-11-22T07:48:42.124Z,7.22
2018-11-22T07:49:52.177Z,7.26
2018-11-22T07:51:02.023Z,7.36
2018-11-22T07:52:12.092Z,7.33
2018-11-22T07:53:21.913Z,7.41
2018-11-22T07:54:31.771Z,7.37
2018-11-22T07:55:41.593Z,7.45
2018-11-22T07:56:51.686Z,7.4
2018-11-22T08:01:03.488Z,7.67
2018-11-22T08:02:13.590Z,7.48
2018-11-22T08:03:23.664Z,7.58
2018-11-22T08:04:34.018Z,7.47
2018-11-22T08:05:43.842Z,7.51
2018-11-22T08:06:54.051Z,7.49
2018-11-22T08:08:05.366Z,7.41
2018-11-22T08:09:15.442Z,7.33
2018-11-22T08:10:25.255Z,7.41
2018-11-22T08:11:35.338Z,7.4
2018-11-22T08:12:45.311Z,7.36
2018-11-22T08:13:55.410Z,7.39
2018-11-22T08:15:07.481Z,7.51
2018-11-22T08:16:17.027Z,7.41
2018-11-22T08:17:27.088Z,7.48
2018-11-22T08:18:37.168Z,7.47
2018-11-22T08:19:46.714Z,7.45
2018-11-22T08:20:56.559Z,7.54
2018-11-22T08:22:12.039Z,7.47
2018-11-22T08:23:22.135Z,7.63
2018-11-22T08:24:31.960Z,7.54
2018-11-22T08:25:42.148Z,7.59
2018-11-22T08:26:52.387Z,7.7
2018-11-22T08:28:03.242Z,7.67
2018-11-22T08:29:13.552Z,7.74
2018-11-22T08:30:23.373Z,7.64
2018-11-22T08:31:33.179Z,7.67
2018-11-22T08:32:43.015Z,7.56
2018-11-22T08:33:57.773Z,7.63
2018-11-22T08:35:09.705Z,7.58
2018-11-22T08:36:19.531Z,7.58
2018-11-22T08:37:29.390Z,7.67
2018-11-22T08:38:39.197Z,7.74
2018-11-22T08:39:48.745Z,7.74
2018-11-22T08:40:58.826Z,7.71
2018-11-22T08:42:08.606Z,7.68
2018-11-22T08:43:18.997Z,7.64
2018-11-22T08:44:29.079Z,7.74
2018-11-22T08:45:38.921Z,7.68
2018-11-22T08:46:48.473Z,7.71
2018-11-22T08:47:58.400Z,7.71
2018-11-22T08:49:10.819Z,7.74
2018-11-22T08:50:20.653Z,7.71
2018-11-22T08:51:30.434Z,7.7
2018-11-22T08:52:40.604Z,7.73
2018-11-22T08:53:50.674Z,7.77
2018-11-22T08:55:01.425Z,7.77
2018-11-22T08:56:11.507Z,7.8
2018-11-22T08:57:21.597Z,7.82
2018-11-22T08:58:31.672Z,7.83
2018-11-22T08:59:41.504Z,7.88
2018-11-22T09:00:51.575Z,7.78
2018-11-22T09:02:02.450Z,7.93
2018-11-22T09:03:11.743Z,7.86
2018-11-22T09:04:21.857Z,7.98
2018-11-22T09:05:31.953Z,8.04
2018-11-22T09:06:41.821Z,7.92
2018-11-22T09:07:51.905Z,8.01
2018-11-22T09:09:02.495Z,8.04
2018-11-22T09:10:12.577Z,7.92
2018-11-22T09:11:22.650Z,7.99
2018-11-22T09:12:32.513Z,8.01
2018-11-22T09:13:42.565Z,8.04
2018-11-22T09:14:52.733Z,7.96
2018-11-22T09:16:02.552Z,7.98
2018-11-22T09:17:12.604Z,8.07
2018-11-22T09:18:22.356Z,8.1
2018-11-22T09:19:32.399Z,8.22
2018-11-22T09:20:42.464Z,8.25
2018-11-22T09:21:52.308Z,8.21
2018-11-22T09:23:02.135Z,8.13
2018-11-22T09:24:11.949Z,8.14
2018-11-22T09:25:24.971Z,8.28
2018-11-22T09:26:35.128Z,8.22
2018-11-22T09:27:45.009Z,8.19
2018-11-22T09:28:54.600Z,8.16
2018-11-22T09:30:05.613Z,8.21
2018-11-22T09:31:15.709Z,8.22
2018-11-22T09:32:25.835Z,8.21
2018-11-22T09:33:35.642Z,8.26
2018-11-22T09:34:45.729Z,8.21
2018-11-22T09:35:55.549Z,8.29
2018-11-22T09:37:05.107Z,8.32
2018-11-22T09:38:15.279Z,8.34
2018-11-22T09:39:25.119Z,8.4
2018-11-22T09:40:34.938Z,8.42
2018-11-22T09:41:45.008Z,8.43
2018-11-22T09:42:55.401Z,8.35
2018-11-22T09:44:05.630Z,8.44
2018-11-22T09:45:15.468Z,8.4
2018-11-22T09:46:25.779Z,8.4
2018-11-22T09:47:35.848Z,8.35
2018-11-22T09:48:46.048Z,8.39
2018-11-22T09:49:56.225Z,8.43
2018-11-22T09:51:06.362Z,8.36
2018-11-22T09:52:16.413Z,8.4
2018-11-22T09:53:26.479Z,8.46
2018-11-22T09:54:36.286Z,8.46
2018-11-22T09:55:46.104Z,8.58
2018-11-22T09:56:55.915Z,8.61
2018-11-22T09:58:07.564Z,8.53
2018-11-22T09:59:18.083Z,8.58
2018-11-22T10:00:28.055Z,8.62
2018-11-22T10:01:38.146Z,8.58
2018-11-22T10:02:47.972Z,8.68
2018-11-22T10:03:57.653Z,8.54
2018-11-22T10:05:08.452Z,8.57
2018-11-22T10:06:19.013Z,8.61
2018-11-22T10:07:28.843Z,8.62
2018-11-22T10:08:38.996Z,8.58
2018-11-22T10:09:49.231Z,8.68
2018-11-22T10:10:59.313Z,8.64
2018-11-22T10:12:09.653Z,8.71
2018-11-22T10:13:19.486Z,8.74
2018-11-22T10:14:29.597Z,8.76
2018-11-22T10:15:39.564Z,8.79
2018-11-22T10:16:49.666Z,8.82
2018-11-22T10:17:59.804Z,8.79
2018-11-22T10:19:09.865Z,8.79
2018-11-22T10:20:19.957Z,8.82
2018-11-22T10:21:30.088Z,8.77
2018-11-22T10:22:40.471Z,8.72
2018-11-22T10:23:50.443Z,8.8
2018-11-22T10:25:00.398Z,8.76
2018-11-22T10:26:10.475Z,8.74
2018-11-22T10:27:20.793Z,8.72
2018-11-22T10:28:30.620Z,8.79
2018-11-22T10:29:41.051Z,8.71
2018-11-22T10:30:50.994Z,8.77
2018-11-22T10:32:00.813Z,8.77
2018-11-22T10:33:10.942Z,8.72
2018-11-22T10:34:21.023Z,8.67
2018-11-22T10:35:31.315Z,8.67
2018-11-22T10:36:41.139Z,8.67
2018-11-22T10:37:51.396Z,8.61
2018-11-22T10:39:02.075Z,8.72
2018-11-22T10:40:12.332Z,8.76
2018-11-22T10:41:22.635Z,8.74
2018-11-22T10:42:33.027Z,8.71
2018-11-22T10:43:43.404Z,8.69
2018-11-22T10:44:53.487Z,8.71
2018-11-22T10:46:04.311Z,8.71
2018-11-22T10:47:14.316Z,8.68
2018-11-22T10:48:24.392Z,8.69
2018-11-22T10:49:34.484Z,8.69
2018-11-22T10:50:44.366Z,8.72
2018-11-22T10:51:53.943Z,8.68
2018-11-22T10:53:03.525Z,8.74
2018-11-22T10:54:13.606Z,8.69
2018-11-22T10:55:23.422Z,8.74
2018-11-22T10:56:33.292Z,8.76
2018-11-22T10:57:42.871Z,8.82
2018-11-22T10:58:58.948Z,8.77
2018-11-22T11:00:08.779Z,8.94
2018-11-22T11:01:18.342Z,8.98
2018-11-22T11:02:28.222Z,8.92
2018-11-22T11:03:38.047Z,9.01
2018-11-22T11:04:48.117Z,8.98
2018-11-22T11:05:57.683Z,9.14
2018-11-22T11:07:07.277Z,9.04
2018-11-22T11:08:17.099Z,9.09
2018-11-22T11:09:26.666Z,9
2018-11-22T11:10:36.595Z,9.01
2018-11-22T11:11:46.681Z,9.05
2018-11-22T11:12:56.986Z,9.16
2018-11-22T11:14:07.122Z,9.17
2018-11-22T11:15:17.243Z,9.16
2018-11-22T11:16:27.984Z,9.2
2018-11-22T11:17:37.730Z,9.21
2018-11-22T11:18:47.805Z,9.05
2018-11-22T11:19:57.949Z,9.17
2018-11-22T11:21:08.933Z,9.12
2018-11-22T11:22:18.794Z,9.09
2018-11-22T11:23:28.627Z,9.11
2018-11-22T11:24:40.503Z,9.03
2018-11-22T11:25:51.266Z,9
2018-11-22T11:27:01.135Z,9.11
2018-11-22T11:28:10.957Z,9.04
2018-11-22T11:29:21.239Z,9.12
2018-11-22T11:30:31.077Z,9.03
2018-11-22T11:31:40.987Z,9.16
2018-11-22T11:32:51.056Z,9.11
2018-11-22T11:34:01.613Z,9.08
2018-11-22T11:35:11.035Z,8.92
2018-11-22T11:36:22.841Z,9.04
2018-11-22T11:37:32.928Z,9.04
2018-11-22T11:38:43.048Z,9.08
2018-11-22T11:39:53.189Z,9.08
2018-11-22T11:41:08.414Z,9.09
2018-11-22T11:42:18.486Z,9.11
2018-11-22T11:43:28.289Z,9.04
2018-11-22T11:44:38.104Z,9.17
2018-11-22T11:45:48.176Z,8.95
2018-11-22T11:46:57.991Z,9.12
2018-11-22T11:48:08.113Z,9.04
2018-11-22T11:49:17.930Z,9.11
2018-11-22T11:50:28.000Z,9.12
2018-11-22T11:51:37.823Z,9.08
2018-11-22T11:52:47.142Z,9.21
2018-11-22T11:53:56.707Z,9.27
2018-11-22T11:55:06.856Z,9.3
2018-11-22T11:56:16.672Z,9.34
2018-11-22T11:57:27.577Z,9.35
2018-11-22T11:58:37.647Z,9.37
2018-11-22T11:59:47.747Z,9.35
2018-11-22T12:00:57.917Z,9.38
2018-11-22T12:02:08.122Z,9.42
2018-11-22T12:03:22.971Z,9.37
2018-11-22T12:04:33.064Z,9.38
2018-11-22T12:05:43.188Z,9.35
2018-11-22T12:06:53.343Z,9.38
2018-11-22T12:08:05.680Z,9.38
2018-11-22T12:09:15.505Z,9.37
2018-11-22T12:10:25.375Z,9.34
2018-11-22T12:11:35.449Z,9.41
2018-11-22T12:12:45.274Z,9.41
2018-11-22T12:13:54.845Z,9.29
2018-11-22T12:15:04.888Z,9.38
2018-11-22T12:16:14.960Z,9.35
2018-11-22T12:17:24.564Z,9.26
2018-11-22T12:18:41.457Z,9.41
2018-11-22T12:19:51.278Z,9.34
2018-11-22T12:21:00.841Z,9.38
2018-11-22T12:22:10.404Z,9.35
2018-11-22T12:23:20.255Z,9.32
2018-11-22T12:24:29.862Z,9.35
2018-11-22T12:25:39.951Z,9.32
2018-11-22T12:26:49.763Z,9.32
2018-11-22T12:27:59.841Z,9.41
2018-11-22T12:29:11.067Z,9.42
2018-11-22T12:30:21.046Z,9.48
2018-11-22T12:31:30.927Z,9.45
2018-11-22T12:32:40.748Z,9.55
2018-11-22T12:33:50.840Z,9.48
2018-11-22T12:35:00.935Z,9.47
2018-11-22T12:36:11.019Z,9.47
2018-11-22T12:37:21.262Z,9.42
2018-11-22T12:38:31.341Z,9.44
2018-11-22T12:39:41.402Z,9.41
2018-11-22T12:40:51.490Z,9.37
2018-11-22T12:42:01.603Z,9.35
2018-11-22T12:43:11.695Z,9.3
2018-11-22T12:44:21.615Z,9.29
2018-11-22T12:45:31.697Z,9.26
2018-11-22T12:46:41.790Z,9.26
2018-11-22T12:47:51.370Z,9.23
2018-11-22T12:49:01.381Z,9.27
2018-11-22T12:50:11.205Z,9.3
2018-11-22T12:51:21.041Z,9.2
2018-11-22T12:52:30.877Z,9.2
2018-11-22T12:53:40.950Z,9.27
2018-11-22T12:54:50.762Z,9.12
2018-11-22T12:56:00.600Z,9.12
2018-11-22T12:57:10.799Z,9.17
2018-11-22T12:58:20.488Z,9.09
2018-11-22T12:59:30.552Z,9.09
2018-11-22T13:00:40.830Z,9.11
2018-11-22T13:01:50.917Z,9.08
2018-11-22T13:03:01.144Z,9.01
2018-11-22T13:04:11.274Z,9.01
2018-11-22T13:05:21.078Z,9.03
2018-11-22T13:06:31.150Z,9.08
2018-11-22T13:07:41.455Z,9.05
2018-11-22T13:08:51.277Z,9.17
2018-11-22T13:10:01.189Z,9.12
2018-11-22T13:11:11.262Z,9.16
2018-11-22T13:12:21.325Z,9.12
2018-11-22T13:13:31.154Z,9.16
2018-11-22T13:14:40.966Z,9.04
2018-11-22T13:15:51.047Z,9.11
2018-11-22T13:17:01.339Z,9.01
2018-11-22T13:18:10.893Z,9.03
2018-11-22T13:19:20.696Z,9.05
2018-11-22T13:20:30.797Z,9.04
2018-11-22T13:21:40.617Z,9.03
2018-11-22T13:22:50.973Z,8.94
2018-11-22T13:24:01.037Z,9
2018-11-22T13:25:10.662Z,8.87
2018-11-22T13:26:20.525Z,8.92
2018-11-22T13:27:30.354Z,8.82
2018-11-22T13:28:40.709Z,8.97
2018-11-22T13:29:50.783Z,9
2018-11-22T13:31:00.622Z,8.9
2018-11-22T13:32:10.179Z,8.94
2018-11-22T13:33:26.550Z,8.97
2018-11-22T13:34:36.399Z,8.98
2018-11-22T13:35:46.230Z,8.95
2018-11-22T13:36:56.316Z,8.87
2018-11-22T13:38:08.394Z,8.86
2018-11-22T13:39:18.216Z,8.94
2018-11-22T13:40:28.038Z,8.79
2018-11-22T13:41:38.151Z,8.82
2018-11-22T13:42:47.717Z,8.77
2018-11-22T13:43:57.834Z,8.8
2018-11-22T13:45:08.510Z,8.79
2018-11-22T13:46:17.586Z,8.77
2018-11-22T13:47:27.683Z,8.72
2018-11-22T13:48:37.800Z,8.8
2018-11-22T13:49:47.807Z,8.74
2018-11-22T13:50:58.305Z,8.87
2018-11-22T13:52:09.520Z,8.77
2018-11-22T13:53:25.125Z,8.87
2018-11-22T13:54:35.201Z,8.9
2018-11-22T13:55:45.028Z,8.86
2018-11-22T13:56:54.858Z,8.8
2018-11-22T13:58:05.656Z,8.82
2018-11-22T13:59:15.715Z,8.8
2018-11-22T14:00:25.580Z,8.85
2018-11-22T14:01:35.705Z,8.79
2018-11-22T14:02:45.540Z,8.82
2018-11-22T14:03:55.379Z,8.79
2018-11-22T14:05:07.851Z,8.68
2018-11-22T14:06:21.437Z,8.8
2018-11-22T14:07:31.686Z,8.82
2018-11-22T14:08:41.770Z,8.85
2018-11-22T14:09:51.601Z,8.76
2018-11-22T14:11:03.502Z,8.92
2018-11-22T14:12:21.781Z,8.77
2018-11-22T14:13:31.676Z,8.76
2018-11-22T14:14:41.777Z,8.67
2018-11-22T14:15:51.866Z,8.77
2018-11-22T14:17:02.474Z,8.79
2018-11-22T14:18:12.306Z,8.79
2018-11-22T14:19:22.127Z,8.71
2018-11-22T14:20:32.223Z,8.68
2018-11-22T14:21:42.063Z,8.69
2018-11-22T14:22:52.133Z,8.68
2018-11-22T14:24:03.139Z,8.69
2018-11-22T14:25:13.229Z,8.61
2018-11-22T14:26:23.351Z,8.6
2018-11-22T14:27:33.172Z,8.62
2018-11-22T14:28:42.998Z,8.54
2018-11-22T14:29:53.121Z,8.58
2018-11-22T14:31:02.981Z,8.61
2018-11-22T14:32:12.815Z,8.57
2018-11-22T14:33:23.164Z,8.6
2018-11-22T14:34:32.812Z,8.64
2018-11-22T14:35:42.919Z,8.67
2018-11-22T14:36:53.001Z,8.62
2018-11-22T14:38:02.834Z,8.65
2018-11-22T14:39:13.001Z,8.69
2018-11-22T14:40:22.584Z,8.76
2018-11-22T14:41:32.403Z,8.74
2018-11-22T14:42:42.237Z,8.64
2018-11-22T14:43:52.063Z,8.67
2018-11-22T14:45:01.924Z,8.67
2018-11-22T14:46:12.017Z,8.72
2018-11-22T14:47:21.890Z,8.68
2018-11-22T14:48:31.454Z,8.65
2018-11-22T14:49:41.546Z,8.52
2018-11-22T14:50:51.142Z,8.6
2018-11-22T14:52:00.985Z,8.6
2018-11-22T14:53:11.099Z,8.57
2018-11-22T14:54:21.194Z,8.61
2018-11-22T14:55:31.537Z,8.57
2018-11-22T14:56:41.390Z,8.64
2018-11-22T14:57:50.975Z,8.58
2018-11-22T14:59:00.791Z,8.65
2018-11-22T15:00:10.851Z,8.6
2018-11-22T15:01:20.656Z,8.58
2018-11-22T15:02:30.779Z,8.47
2018-11-22T15:03:40.847Z,8.57
2018-11-22T15:04:51.031Z,8.6
2018-11-22T15:06:02.315Z,8.57
2018-11-22T15:07:12.417Z,8.58
2018-11-22T15:08:22.349Z,8.53
2018-11-22T15:09:32.216Z,8.44
2018-11-22T15:10:42.113Z,8.53
2018-11-22T15:11:51.678Z,8.49
2018-11-22T15:13:01.513Z,8.49
2018-11-22T15:14:11.364Z,8.53
2018-11-22T15:15:20.947Z,8.57
2018-11-22T15:16:31.038Z,8.47
2018-11-22T15:17:41.340Z,8.44
2018-11-22T15:18:51.408Z,8.44
2018-11-22T15:20:01.698Z,8.52
2018-11-22T15:21:11.788Z,8.47
2018-11-22T15:22:21.680Z,8.47
2018-11-22T15:23:31.760Z,8.42
2018-11-22T15:24:41.839Z,8.44
2018-11-22T15:25:51.942Z,8.53
2018-11-22T15:27:02.079Z,8.42
2018-11-22T15:28:12.214Z,8.61
2018-11-22T15:29:21.281Z,8.49
2018-11-22T15:30:31.473Z,8.43
2018-11-22T15:31:41.327Z,8.4
2018-11-22T15:32:51.421Z,8.32
2018-11-22T15:34:01.506Z,8.43
2018-11-22T15:35:11.067Z,8.36
2018-11-22T15:36:21.192Z,8.4
2018-11-22T15:37:31.294Z,8.44
2018-11-22T15:38:41.397Z,8.36
2018-11-22T15:39:51.228Z,8.42
2018-11-22T15:41:01.149Z,8.39
2018-11-22T15:42:10.993Z,8.35
2018-11-22T15:43:20.821Z,8.39
2018-11-22T15:44:30.642Z,8.4
2018-11-22T15:45:40.910Z,8.39
2018-11-22T15:46:50.998Z,8.34
2018-11-22T15:48:03.143Z,8.32
2018-11-22T15:49:13.074Z,8.4
2018-11-22T15:50:22.501Z,8.32
2018-11-22T15:51:32.377Z,8.44
2018-11-22T15:52:42.458Z,8.39
2018-11-22T15:53:52.821Z,8.34
2018-11-22T15:55:03.752Z,8.4
2018-11-22T15:56:13.852Z,8.44
2018-11-22T15:57:24.142Z,8.39
2018-11-22T15:58:33.979Z,8.49
2018-11-22T15:59:44.057Z,8.52
2018-11-22T16:00:54.376Z,8.44
2018-11-22T16:02:04.212Z,8.49
2018-11-22T16:03:14.297Z,8.49
2018-11-22T16:04:24.380Z,8.43
2018-11-22T16:05:33.950Z,8.42
2018-11-22T16:06:44.126Z,8.47
2018-11-22T16:07:53.795Z,8.49
2018-11-22T16:09:03.873Z,8.47
2018-11-22T16:10:13.926Z,8.44
2018-11-22T16:11:31.473Z,8.52